Terminal Aerodrome Forecast
Issued by NWS Wakefield, VA

Home | Current Version | Previous Version | Text Only | Print | Product List | Glossary On
Versions: 1 2 3 4 5 6 7 8 9 10 11 12 13 14 15 16 17 18
843
FTUS41 KAKQ 221737 CCA
TAFORF
TAF COR
KORF 221737Z 2218/2318 09010KT P6SM BKN200
     FM230200 13005KT P6SM BKN250
     FM231300 10012G20KT P6SM BKN150=

USA.gov is the U.S. government's official web portal to all federal, state and local government web resources and services.